sensor_id;sensor_type;location;lat;lon;timestamp;temperature;humidity
76040;SHT30;64736;50.462;4.850;2022-11-09T00:00:24;13.92;76.05
76040;SHT30;64736;50.462;4.850;2022-11-09T00:02:49;13.90;75.88
76040;SHT30;64736;50.462;4.850;2022-11-09T00:05:15;13.88;75.94
76040;SHT30;64736;50.462;4.850;2022-11-09T00:07:40;13.83;76.22
76040;SHT30;64736;50.462;4.850;2022-11-09T00:10:06;13.77;76.09
76040;SHT30;64736;50.462;4.850;2022-11-09T00:12:32;13.77;75.98
76040;SHT30;64736;50.462;4.850;2022-11-09T00:14:58;13.75;76.22
76040;SHT30;64736;50.462;4.850;2022-11-09T00:17:23;13.68;76.35
76040;SHT30;64736;50.462;4.850;2022-11-09T00:19:49;13.74;76.00
76040;SHT30;64736;50.462;4.850;2022-11-09T00:22:14;13.69;76.14
76040;SHT30;64736;50.462;4.850;2022-11-09T00:24:40;13.69;76.15
76040;SHT30;64736;50.462;4.850;2022-11-09T00:27:06;13.62;76.56
76040;SHT30;64736;50.462;4.850;2022-11-09T00:29:31;13.53;76.83
76040;SHT30;64736;50.462;4.850;2022-11-09T00:31:57;13.51;77.03
76040;SHT30;64736;50.462;4.850;2022-11-09T00:34:23;13.46;77.21
76040;SHT30;64736;50.462;4.850;2022-11-09T00:36:48;13.43;77.36
76040;SHT30;64736;50.462;4.850;2022-11-09T00:39:14;13.34;77.58
76040;SHT30;64736;50.462;4.850;2022-11-09T00:41:40;13.36;77.71
76040;SHT30;64736;50.462;4.850;2022-11-09T00:44:05;13.34;77.60
76040;SHT30;64736;50.462;4.850;2022-11-09T00:46:31;13.44;77.42
76040;SHT30;64736;50.462;4.850;2022-11-09T00:48:57;13.41;77.56
76040;SHT30;64736;50.462;4.850;2022-11-09T00:51:22;13.43;77.44
76040;SHT30;64736;50.462;4.850;2022-11-09T00:53:48;13.40;77.60
76040;SHT30;64736;50.462;4.850;2022-11-09T00:56:19;13.37;77.69
76040;SHT30;64736;50.462;4.850;2022-11-09T00:58:44;13.31;77.98
76040;SHT30;64736;50.462;4.850;2022-11-09T01:01:13;13.34;77.98
76040;SHT30;64736;50.462;4.850;2022-11-09T01:03:40;13.27;78.20
76040;SHT30;64736;50.462;4.850;2022-11-09T01:06:06;13.21;78.43
76040;SHT30;64736;50.462;4.850;2022-11-09T01:08:34;13.21;78.55
76040;SHT30;64736;50.462;4.850;2022-11-09T01:11:04;13.19;78.73
76040;SHT30;64736;50.462;4.850;2022-11-09T01:13:31;13.17;78.97
76040;SHT30;64736;50.462;4.850;2022-11-09T01:15:56;13.16;79.05
76040;SHT30;64736;50.462;4.850;2022-11-09T01:18:22;13.19;78.98
76040;SHT30;64736;50.462;4.850;2022-11-09T01:20:49;13.21;79.01
76040;SHT30;64736;50.462;4.850;2022-11-09T01:23:16;13.26;78.85
76040;SHT30;64736;50.462;4.850;2022-11-09T01:25:43;13.26;78.88
76040;SHT30;64736;50.462;4.850;2022-11-09T01:28:09;13.21;79.10
76040;SHT30;64736;50.462;4.850;2022-11-09T01:30:38;13.26;78.90
76040;SHT30;64736;50.462;4.850;2022-11-09T01:33:05;13.28;78.86
76040;SHT30;64736;50.462;4.850;2022-11-09T01:35:32;13.31;78.76
76040;SHT30;64736;50.462;4.850;2022-11-09T01:37:58;13.23;79.04
76040;SHT30;64736;50.462;4.850;2022-11-09T01:40:25;13.16;79.42
76040;SHT30;64736;50.462;4.850;2022-11-09T01:42:51;13.10;79.74
76040;SHT30;64736;50.462;4.850;2022-11-09T01:47:44;13.02;79.96
76040;SHT30;64736;50.462;4.850;2022-11-09T01:50:10;13.02;80.09
76040;SHT30;64736;50.462;4.850;2022-11-09T01:52:41;13.06;79.94
76040;SHT30;64736;50.462;4.850;2022-11-09T01:55:17;13.04;79.98
76040;SHT30;64736;50.462;4.850;2022-11-09T01:57:53;13.04;79.77
76040;SHT30;64736;50.462;4.850;2022-11-09T02:00:20;13.04;79.83
76040;SHT30;64736;50.462;4.850;2022-11-09T02:02:57;13.03;79.77
76040;SHT30;64736;50.462;4.850;2022-11-09T02:05:28;13.03;79.86
76040;SHT30;64736;50.462;4.850;2022-11-09T02:07:54;12.97;80.10
76040;SHT30;64736;50.462;4.850;2022-11-09T02:13:18;12.99;80.17
76040;SHT30;64736;50.462;4.850;2022-11-09T02:15:47;13.04;80.03
76040;SHT30;64736;50.462;4.850;2022-11-09T02:18:13;13.07;79.93
76040;SHT30;64736;50.462;4.850;2022-11-09T02:20:56;13.04;79.81
76040;SHT30;64736;50.462;4.850;2022-11-09T02:23:23;13.09;79.82
76040;SHT30;64736;50.462;4.850;2022-11-09T02:25:54;13.09;79.71
76040;SHT30;64736;50.462;4.850;2022-11-09T02:28:22;13.13;79.64
76040;SHT30;64736;50.462;4.850;2022-11-09T02:30:51;13.13;79.49
76040;SHT30;64736;50.462;4.850;2022-11-09T02:33:17;13.14;79.53
76040;SHT30;64736;50.462;4.850;2022-11-09T02:35:43;13.19;80.06
76040;SHT30;64736;50.462;4.850;2022-11-09T02:38:11;13.20;79.67
76040;SHT30;64736;50.462;4.850;2022-11-09T02:40:39;13.17;79.90
76040;SHT30;64736;50.462;4.850;2022-11-09T02:43:07;13.17;79.87
76040;SHT30;64736;50.462;4.850;2022-11-09T02:45:34;13.14;80.02
76040;SHT30;64736;50.462;4.850;2022-11-09T02:48:00;13.19;80.16
76040;SHT30;64736;50.462;4.850;2022-11-09T02:50:26;13.16;81.86
76040;SHT30;64736;50.462;4.850;2022-11-09T02:52:51;13.00;84.97
76040;SHT30;64736;50.462;4.850;2022-11-09T02:55:17;12.71;88.10
76040;SHT30;64736;50.462;4.850;2022-11-09T02:57:43;12.51;88.81
76040;SHT30;64736;50.462;4.850;2022-11-09T03:00:10;12.46;89.94
76040;SHT30;64736;50.462;4.850;2022-11-09T03:02:36;12.44;89.55
76040;SHT30;64736;50.462;4.850;2022-11-09T03:05:02;12.37;90.00
76040;SHT30;64736;50.462;4.850;2022-11-09T03:07:28;12.37;90.25
76040;SHT30;64736;50.462;4.850;2022-11-09T03:09:54;12.34;89.93
76040;SHT30;64736;50.462;4.850;2022-11-09T03:12:19;12.33;90.69
76040;SHT30;64736;50.462;4.850;2022-11-09T03:15:00;12.28;90.82
76040;SHT30;64736;50.462;4.850;2022-11-09T03:17:26;12.30;91.67
76040;SHT30;64736;50.462;4.850;2022-11-09T03:19:53;12.33;91.30
76040;SHT30;64736;50.462;4.850;2022-11-09T03:22:19;12.33;89.76
76040;SHT30;64736;50.462;4.850;2022-11-09T03:24:45;12.34;90.48
76040;SHT30;64736;50.462;4.850;2022-11-09T03:27:11;12.38;88.90
76040;SHT30;64736;50.462;4.850;2022-11-09T03:29:37;12.37;90.29
76040;SHT30;64736;50.462;4.850;2022-11-09T03:32:04;12.37;90.10
76040;SHT30;64736;50.462;4.850;2022-11-09T03:34:30;12.38;90.26
76040;SHT30;64736;50.462;4.850;2022-11-09T03:36:56;12.40;88.43
76040;SHT30;64736;50.462;4.850;2022-11-09T03:39:22;12.42;89.28
76040;SHT30;64736;50.462;4.850;2022-11-09T03:41:48;12.42;88.99
76040;SHT30;64736;50.462;4.850;2022-11-09T03:44:14;12.42;89.50
76040;SHT30;64736;50.462;4.850;2022-11-09T03:46:40;12.44;88.45
76040;SHT30;64736;50.462;4.850;2022-11-09T03:49:06;12.45;88.40
76040;SHT30;64736;50.462;4.850;2022-11-09T03:51:31;12.48;89.07
76040;SHT30;64736;50.462;4.850;2022-11-09T03:53:57;12.48;88.50
76040;SHT30;64736;50.462;4.850;2022-11-09T03:56:23;12.51;88.05
76040;SHT30;64736;50.462;4.850;2022-11-09T03:58:49;12.52;87.57
76040;SHT30;64736;50.462;4.850;2022-11-09T04:01:15;12.51;88.25
76040;SHT30;64736;50.462;4.850;2022-11-09T04:03:40;12.49;87.40
76040;SHT30;64736;50.462;4.850;2022-11-09T04:06:06;12.48;87.54
76040;SHT30;64736;50.462;4.850;2022-11-09T04:08:32;12.49;86.72
76040;SHT30;64736;50.462;4.850;2022-11-09T04:10:59;12.48;87.35
76040;SHT30;64736;50.462;4.850;2022-11-09T04:13:24;12.52;86.51
76040;SHT30;64736;50.462;4.850;2022-11-09T04:15:50;12.54;86.73
76040;SHT30;64736;50.462;4.850;2022-11-09T04:18:16;12.54;86.42
76040;SHT30;64736;50.462;4.850;2022-11-09T04:20:42;12.55;86.11
76040;SHT30;64736;50.462;4.850;2022-11-09T04:23:13;12.55;86.54
76040;SHT30;64736;50.462;4.850;2022-11-09T04:25:40;12.54;86.65
76040;SHT30;64736;50.462;4.850;2022-11-09T04:28:07;12.48;86.48
76040;SHT30;64736;50.462;4.850;2022-11-09T04:30:34;12.45;86.85
76040;SHT30;64736;50.462;4.850;2022-11-09T04:33:00;12.38;87.32
76040;SHT30;64736;50.462;4.850;2022-11-09T04:35:27;12.33;87.62
76040;SHT30;64736;50.462;4.850;2022-11-09T04:37:59;12.31;87.37
76040;SHT30;64736;50.462;4.850;2022-11-09T04:40:27;12.31;87.40
76040;SHT30;64736;50.462;4.850;2022-11-09T04:42:53;12.28;87.87
76040;SHT30;64736;50.462;4.850;2022-11-09T04:45:20;12.24;87.98
76040;SHT30;64736;50.462;4.850;2022-11-09T04:47:46;12.17;88.37
76040;SHT30;64736;50.462;4.850;2022-11-09T04:50:12;12.10;88.62
76040;SHT30;64736;50.462;4.850;2022-11-09T04:52:38;12.06;88.84
76040;SHT30;64736;50.462;4.850;2022-11-09T04:55:04;12.10;88.61
76040;SHT30;64736;50.462;4.850;2022-11-09T04:57:30;12.08;88.60
76040;SHT30;64736;50.462;4.850;2022-11-09T04:59:56;12.01;88.83
76040;SHT30;64736;50.462;4.850;2022-11-09T05:02:22;12.00;88.98
76040;SHT30;64736;50.462;4.850;2022-11-09T05:04:48;11.97;89.03
76040;SHT30;64736;50.462;4.850;2022-11-09T05:07:13;11.96;89.13
76040;SHT30;64736;50.462;4.850;2022-11-09T05:09:39;11.90;89.37
76040;SHT30;64736;50.462;4.850;2022-11-09T05:12:05;11.90;89.37
76040;SHT30;64736;50.462;4.850;2022-11-09T05:14:31;11.89;89.49
76040;SHT30;64736;50.462;4.850;2022-11-09T05:16:56;11.85;89.57
76040;SHT30;64736;50.462;4.850;2022-11-09T05:19:22;11.85;89.53
76040;SHT30;64736;50.462;4.850;2022-11-09T05:21:48;11.83;89.42
76040;SHT30;64736;50.462;4.850;2022-11-09T05:24:13;11.94;89.10
76040;SHT30;64736;50.462;4.850;2022-11-09T05:26:40;11.86;89.30
76040;SHT30;64736;50.462;4.850;2022-11-09T05:29:08;11.90;88.97
76040;SHT30;64736;50.462;4.850;2022-11-09T05:31:36;11.85;89.04
76040;SHT30;64736;50.462;4.850;2022-11-09T05:34:02;11.79;89.29
76040;SHT30;64736;50.462;4.850;2022-11-09T05:36:29;11.82;89.00
76040;SHT30;64736;50.462;4.850;2022-11-09T05:38:56;11.75;89.21
76040;SHT30;64736;50.462;4.850;2022-11-09T05:41:22;11.73;89.28
76040;SHT30;64736;50.462;4.850;2022-11-09T05:43:49;11.70;89.15
76040;SHT30;64736;50.462;4.850;2022-11-09T05:46:16;11.69;89.32
76040;SHT30;64736;50.462;4.850;2022-11-09T05:48:42;11.63;89.09
76040;SHT30;64736;50.462;4.850;2022-11-09T05:51:10;11.62;89.05
76040;SHT30;64736;50.462;4.850;2022-11-09T05:53:36;11.67;88.43
76040;SHT30;64736;50.462;4.850;2022-11-09T05:56:07;11.69;88.17
76040;SHT30;64736;50.462;4.850;2022-11-09T05:58:34;11.66;87.71
76040;SHT30;64736;50.462;4.850;2022-11-09T06:01:10;11.70;87.34
76040;SHT30;64736;50.462;4.850;2022-11-09T06:03:36;11.66;87.65
76040;SHT30;64736;50.462;4.850;2022-11-09T06:06:04;11.67;87.22
76040;SHT30;64736;50.462;4.850;2022-11-09T06:08:30;11.67;86.99
76040;SHT30;64736;50.462;4.850;2022-11-09T06:11:02;11.65;87.38
76040;SHT30;64736;50.462;4.850;2022-11-09T06:13:29;11.56;87.24
76040;SHT30;64736;50.462;4.850;2022-11-09T06:15:56;11.61;86.87
76040;SHT30;64736;50.462;4.850;2022-11-09T06:18:23;11.58;87.24
76040;SHT30;64736;50.462;4.850;2022-11-09T06:20:51;11.52;87.08
76040;SHT30;64736;50.462;4.850;2022-11-09T06:23:17;11.54;87.16
76040;SHT30;64736;50.462;4.850;2022-11-09T06:25:43;11.49;87.37
76040;SHT30;64736;50.462;4.850;2022-11-09T06:28:09;11.51;87.16
76040;SHT30;64736;50.462;4.850;2022-11-09T06:30:35;11.49;87.19
76040;SHT30;64736;50.462;4.850;2022-11-09T06:33:01;11.52;87.19
76040;SHT30;64736;50.462;4.850;2022-11-09T06:35:27;11.45;87.29
76040;SHT30;64736;50.462;4.850;2022-11-09T06:37:55;11.45;87.44
76040;SHT30;64736;50.462;4.850;2022-11-09T06:40:21;11.39;87.54
76040;SHT30;64736;50.462;4.850;2022-11-09T06:42:49;11.40;87.45
76040;SHT30;64736;50.462;4.850;2022-11-09T06:45:15;11.39;87.54
76040;SHT30;64736;50.462;4.850;2022-11-09T06:47:41;11.40;87.33
76040;SHT30;64736;50.462;4.850;2022-11-09T06:50:07;11.34;87.57
76040;SHT30;64736;50.462;4.850;2022-11-09T06:52:34;11.35;87.51
76040;SHT30;64736;50.462;4.850;2022-11-09T06:54:59;11.38;87.28
76040;SHT30;64736;50.462;4.850;2022-11-09T06:57:29;11.38;87.36
76040;SHT30;64736;50.462;4.850;2022-11-09T06:59:54;11.35;87.28
76040;SHT30;64736;50.462;4.850;2022-11-09T07:02:20;11.40;86.64
76040;SHT30;64736;50.462;4.850;2022-11-09T07:04:50;11.42;86.62
76040;SHT30;64736;50.462;4.850;2022-11-09T07:07:16;11.40;86.68
76040;SHT30;64736;50.462;4.850;2022-11-09T07:09:42;11.36;86.82
76040;SHT30;64736;50.462;4.850;2022-11-09T07:12:08;11.35;86.82
76040;SHT30;64736;50.462;4.850;2022-11-09T07:14:34;11.35;86.48
76040;SHT30;64736;50.462;4.850;2022-11-09T07:17:00;11.35;86.18
76040;SHT30;64736;50.462;4.850;2022-11-09T07:19:27;11.43;85.98
76040;SHT30;64736;50.462;4.850;2022-11-09T07:21:54;11.46;85.63
76040;SHT30;64736;50.462;4.850;2022-11-09T07:24:19;11.49;85.38
76040;SHT30;64736;50.462;4.850;2022-11-09T07:26:46;11.52;85.03
76040;SHT30;64736;50.462;4.850;2022-11-09T07:29:12;11.56;84.92
76040;SHT30;64736;50.462;4.850;2022-11-09T07:31:38;11.61;84.89
76040;SHT30;64736;50.462;4.850;2022-11-09T07:34:04;11.65;84.67
76040;SHT30;64736;50.462;4.850;2022-11-09T07:36:30;11.66;84.45
76040;SHT30;64736;50.462;4.850;2022-11-09T07:38:56;11.66;84.55
76040;SHT30;64736;50.462;4.850;2022-11-09T07:41:22;11.69;83.65
76040;SHT30;64736;50.462;4.850;2022-11-09T07:43:48;11.72;83.51
76040;SHT30;64736;50.462;4.850;2022-11-09T07:46:14;11.67;83.69
76040;SHT30;64736;50.462;4.850;2022-11-09T07:48:40;11.67;84.11
76040;SHT30;64736;50.462;4.850;2022-11-09T07:51:06;11.61;84.04
76040;SHT30;64736;50.462;4.850;2022-11-09T07:53:32;11.63;83.60
76040;SHT30;64736;50.462;4.850;2022-11-09T07:55:59;11.59;84.02
76040;SHT30;64736;50.462;4.850;2022-11-09T07:58:25;11.59;83.64
76040;SHT30;64736;50.462;4.850;2022-11-09T08:00:50;11.59;83.66
76040;SHT30;64736;50.462;4.850;2022-11-09T08:03:20;11.62;83.39
76040;SHT30;64736;50.462;4.850;2022-11-09T08:05:47;11.63;83.23
76040;SHT30;64736;50.462;4.850;2022-11-09T08:08:13;11.59;83.20
76040;SHT30;64736;50.462;4.850;2022-11-09T08:10:41;11.55;83.41
76040;SHT30;64736;50.462;4.850;2022-11-09T08:13:10;11.58;83.34
76040;SHT30;64736;50.462;4.850;2022-11-09T08:15:37;11.59;83.23
76040;SHT30;64736;50.462;4.850;2022-11-09T08:18:05;11.59;83.52
76040;SHT30;64736;50.462;4.850;2022-11-09T08:20:30;11.61;83.07
76040;SHT30;64736;50.462;4.850;2022-11-09T08:22:56;11.62;82.76
76040;SHT30;64736;50.462;4.850;2022-11-09T08:25:22;11.65;82.14
76040;SHT30;64736;50.462;4.850;2022-11-09T08:27:47;11.63;82.36
76040;SHT30;64736;50.462;4.850;2022-11-09T08:30:15;11.65;82.20
76040;SHT30;64736;50.462;4.850;2022-11-09T08:32:42;11.66;82.50
76040;SHT30;64736;50.462;4.850;2022-11-09T08:35:09;11.65;82.50
76040;SHT30;64736;50.462;4.850;2022-11-09T08:37:36;11.66;82.52
76040;SHT30;64736;50.462;4.850;2022-11-09T08:40:02;11.66;82.17
76040;SHT30;64736;50.462;4.850;2022-11-09T08:42:28;11.70;82.10
76040;SHT30;64736;50.462;4.850;2022-11-09T08:44:53;11.69;81.97
76040;SHT30;64736;50.462;4.850;2022-11-09T08:47:19;11.70;82.25
76040;SHT30;64736;50.462;4.850;2022-11-09T08:49:45;11.70;82.28
76040;SHT30;64736;50.462;4.850;2022-11-09T08:52:12;11.75;82.19
76040;SHT30;64736;50.462;4.850;2022-11-09T08:54:37;11.72;81.97
76040;SHT30;64736;50.462;4.850;2022-11-09T08:57:03;11.75;82.27
76040;SHT30;64736;50.462;4.850;2022-11-09T08:59:29;11.79;82.08
76040;SHT30;64736;50.462;4.850;2022-11-09T09:01:54;11.83;82.27
76040;SHT30;64736;50.462;4.850;2022-11-09T09:04:20;11.85;82.18
76040;SHT30;64736;50.462;4.850;2022-11-09T09:06:46;11.85;81.90
76040;SHT30;64736;50.462;4.850;2022-11-09T09:09:11;11.87;81.75
76040;SHT30;64736;50.462;4.850;2022-11-09T09:11:37;11.91;81.88
76040;SHT30;64736;50.462;4.850;2022-11-09T09:14:03;11.91;81.79
76040;SHT30;64736;50.462;4.850;2022-11-09T09:16:28;11.91;82.07
76040;SHT30;64736;50.462;4.850;2022-11-09T09:18:54;11.93;81.68
76040;SHT30;64736;50.462;4.850;2022-11-09T09:21:19;11.91;81.74
76040;SHT30;64736;50.462;4.850;2022-11-09T09:23:49;11.93;82.01
76040;SHT30;64736;50.462;4.850;2022-11-09T09:26:15;11.97;81.67
76040;SHT30;64736;50.462;4.850;2022-11-09T09:28:41;12.08;81.50
76040;SHT30;64736;50.462;4.850;2022-11-09T09:31:06;12.06;81.05
76040;SHT30;64736;50.462;4.850;2022-11-09T09:33:32;12.10;80.73
76040;SHT30;64736;50.462;4.850;2022-11-09T09:35:58;12.21;80.58
76040;SHT30;64736;50.462;4.850;2022-11-09T09:38:25;12.40;79.43
76040;SHT30;64736;50.462;4.850;2022-11-09T09:43:45;12.56;79.05
76040;SHT30;64736;50.462;4.850;2022-11-09T09:46:31;12.48;78.98
76040;SHT30;64736;50.462;4.850;2022-11-09T09:49:05;12.56;78.62
76040;SHT30;64736;50.462;4.850;2022-11-09T09:51:40;12.59;78.74
76040;SHT30;64736;50.462;4.850;2022-11-09T09:54:17;12.66;78.48
76040;SHT30;64736;50.462;4.850;2022-11-09T09:56:45;12.78;77.71
76040;SHT30;64736;50.462;4.850;2022-11-09T09:59:37;13.28;75.30
76040;SHT30;64736;50.462;4.850;2022-11-09T10:02:33;14.26;72.26
76040;SHT30;64736;50.462;4.850;2022-11-09T10:05:01;14.78;70.07
76040;SHT30;64736;50.462;4.850;2022-11-09T10:07:33;15.42;67.95
76040;SHT30;64736;50.462;4.850;2022-11-09T10:10:06;14.70;69.04
76040;SHT30;64736;50.462;4.850;2022-11-09T10:15:45;15.23;67.78
76040;SHT30;64736;50.462;4.850;2022-11-09T10:26:22;14.41;69.38
76040;SHT30;64736;50.462;4.850;2022-11-09T10:28:55;14.51;69.29
76040;SHT30;64736;50.462;4.850;2022-11-09T10:31:22;14.34;70.20
76040;SHT30;64736;50.462;4.850;2022-11-09T10:33:57;14.78;68.51
76040;SHT30;64736;50.462;4.850;2022-11-09T10:36:51;14.75;68.78
76040;SHT30;64736;50.462;4.850;2022-11-09T10:39:20;14.74;68.30
76040;SHT30;64736;50.462;4.850;2022-11-09T10:41:49;14.81;68.49
76040;SHT30;64736;50.462;4.850;2022-11-09T10:44:17;14.60;68.69
76040;SHT30;64736;50.462;4.850;2022-11-09T10:49:30;14.81;68.06
76040;SHT30;64736;50.462;4.850;2022-11-09T10:51:55;14.53;69.25
76040;SHT30;64736;50.462;4.850;2022-11-09T10:54:29;14.99;67.84
76040;SHT30;64736;50.462;4.850;2022-11-09T10:57:17;15.69;65.84
76040;SHT30;64736;50.462;4.850;2022-11-09T10:59:50;15.61;65.98
76040;SHT30;64736;50.462;4.850;2022-11-09T11:02:40;14.95;67.66
76040;SHT30;64736;50.462;4.850;2022-11-09T11:07:34;14.57;69.47
76040;SHT30;64736;50.462;4.850;2022-11-09T11:10:19;14.47;69.97
76040;SHT30;64736;50.462;4.850;2022-11-09T11:13:19;14.33;69.95
76040;SHT30;64736;50.462;4.850;2022-11-09T11:15:42;14.38;69.95
76040;SHT30;64736;50.462;4.850;2022-11-09T11:18:26;14.74;68.61
76040;SHT30;64736;50.462;4.850;2022-11-09T11:21:12;15.76;65.16
76040;SHT30;64736;50.462;4.850;2022-11-09T11:23:39;15.70;64.73
76040;SHT30;64736;50.462;4.850;2022-11-09T11:29:00;16.66;62.21
76040;SHT30;64736;50.462;4.850;2022-11-09T11:31:29;16.62;61.85
76040;SHT30;64736;50.462;4.850;2022-11-09T11:33:55;17.56;59.41
76040;SHT30;64736;50.462;4.850;2022-11-09T11:36:44;17.00;59.56
76040;SHT30;64736;50.462;4.850;2022-11-09T11:42:46;15.11;66.79
76040;SHT30;64736;50.462;4.850;2022-11-09T11:53:46;14.51;68.66
76040;SHT30;64736;50.462;4.850;2022-11-09T11:56:33;14.33;72.00
76040;SHT30;64736;50.462;4.850;2022-11-09T12:02:46;13.96;71.43
76040;SHT30;64736;50.462;4.850;2022-11-09T12:29:21;14.20;71.61
76040;SHT30;64736;50.462;4.850;2022-11-09T12:31:59;14.61;69.66
76040;SHT30;64736;50.462;4.850;2022-11-09T12:34:56;14.64;69.55
76040;SHT30;64736;50.462;4.850;2022-11-09T12:37:33;16.09;64.16
76040;SHT30;64736;50.462;4.850;2022-11-09T12:40:28;16.29;62.96
76040;SHT30;64736;50.462;4.850;2022-11-09T12:43:04;16.93;59.82
76040;SHT30;64736;50.462;4.850;2022-11-09T12:45:37;17.22;58.38
76040;SHT30;64736;50.462;4.850;2022-11-09T12:48:24;17.82;56.34
76040;SHT30;64736;50.462;4.850;2022-11-09T12:50:51;17.45;57.65
76040;SHT30;64736;50.462;4.850;2022-11-09T12:53:21;17.06;58.03
76040;SHT30;64736;50.462;4.850;2022-11-09T12:55:58;17.22;57.79
76040;SHT30;64736;50.462;4.850;2022-11-09T12:58:32;17.68;56.83
76040;SHT30;64736;50.462;4.850;2022-11-09T13:01:03;17.43;57.35
76040;SHT30;64736;50.462;4.850;2022-11-09T13:03:50;17.48;56.92
76040;SHT30;64736;50.462;4.850;2022-11-09T13:06:24;18.28;55.04
76040;SHT30;64736;50.462;4.850;2022-11-09T13:11:41;17.68;56.28
76040;SHT30;64736;50.462;4.850;2022-11-09T13:16:59;16.91;58.60
76040;SHT30;64736;50.462;4.850;2022-11-09T13:27:42;18.10;56.08
76040;SHT30;64736;50.462;4.850;2022-11-09T13:38:15;17.85;56.82
76040;SHT30;64736;50.462;4.850;2022-11-09T13:45:57;17.15;58.38
76040;SHT30;64736;50.462;4.850;2022-11-09T13:48:43;17.18;58.31
76040;SHT30;64736;50.462;4.850;2022-11-09T13:51:18;17.93;56.58
76040;SHT30;64736;50.462;4.850;2022-11-09T13:53:51;17.39;57.14
76040;SHT30;64736;50.462;4.850;2022-11-09T13:56:36;16.66;59.72
76040;SHT30;64736;50.462;4.850;2022-11-09T13:59:27;16.60;59.85
76040;SHT30;64736;50.462;4.850;2022-11-09T14:01:58;16.18;60.78
76040;SHT30;64736;50.462;4.850;2022-11-09T14:07:23;15.57;62.82
76040;SHT30;64736;50.462;4.850;2022-11-09T14:23:29;15.23;64.35
76040;SHT30;64736;50.462;4.850;2022-11-09T14:25:56;15.18;64.87
76040;SHT30;64736;50.462;4.850;2022-11-09T14:28:26;14.99;65.16
76040;SHT30;64736;50.462;4.850;2022-11-09T14:30:51;15.08;65.15
76040;SHT30;64736;50.462;4.850;2022-11-09T14:33:23;14.99;65.07
76040;SHT30;64736;50.462;4.850;2022-11-09T14:35:50;14.85;65.91
76040;SHT30;64736;50.462;4.850;2022-11-09T14:38:23;14.68;65.71
76040;SHT30;64736;50.462;4.850;2022-11-09T14:40:49;14.77;65.01
76040;SHT30;64736;50.462;4.850;2022-11-09T14:43:26;14.61;65.03
76040;SHT30;64736;50.462;4.850;2022-11-09T14:45:59;14.56;65.20
76040;SHT30;64736;50.462;4.850;2022-11-09T14:48:26;14.70;64.75
76040;SHT30;64736;50.462;4.850;2022-11-09T14:50:54;14.51;65.01
76040;SHT30;64736;50.462;4.850;2022-11-09T14:53:31;14.53;65.11
76040;SHT30;64736;50.462;4.850;2022-11-09T14:56:00;14.48;64.83
76040;SHT30;64736;50.462;4.850;2022-11-09T14:58:29;14.41;65.12
76040;SHT30;64736;50.462;4.850;2022-11-09T15:06:28;14.43;65.08
76040;SHT30;64736;50.462;4.850;2022-11-09T15:08:56;14.33;65.38
76040;SHT30;64736;50.462;4.850;2022-11-09T15:11:40;14.30;65.47
76040;SHT30;64736;50.462;4.850;2022-11-09T15:14:29;14.30;65.28
76040;SHT30;64736;50.462;4.850;2022-11-09T15:16:56;14.22;65.55
76040;SHT30;64736;50.462;4.850;2022-11-09T15:21:56;14.16;66.41
76040;SHT30;64736;50.462;4.850;2022-11-09T15:24:24;14.13;66.37
76040;SHT30;64736;50.462;4.850;2022-11-09T15:26:51;14.09;66.29
76040;SHT30;64736;50.462;4.850;2022-11-09T15:29:37;13.98;66.96
76040;SHT30;64736;50.462;4.850;2022-11-09T15:37:46;13.65;68.26
76040;SHT30;64736;50.462;4.850;2022-11-09T15:40:22;13.62;68.64
76040;SHT30;64736;50.462;4.850;2022-11-09T15:42:48;13.50;69.11
76040;SHT30;64736;50.462;4.850;2022-11-09T15:45:17;13.46;69.14
76040;SHT30;64736;50.462;4.850;2022-11-09T15:47:54;13.41;69.55
76040;SHT30;64736;50.462;4.850;2022-11-09T15:50:23;13.38;69.81
76040;SHT30;64736;50.462;4.850;2022-11-09T15:52:49;13.33;70.14
76040;SHT30;64736;50.462;4.850;2022-11-09T15:55:19;13.27;70.31
76040;SHT30;64736;50.462;4.850;2022-11-09T15:57:50;13.24;70.40
76040;SHT30;64736;50.462;4.850;2022-11-09T16:00:18;13.23;70.51
76040;SHT30;64736;50.462;4.850;2022-11-09T16:02:44;13.20;70.58
76040;SHT30;64736;50.462;4.850;2022-11-09T16:05:10;13.19;70.86
76040;SHT30;64736;50.462;4.850;2022-11-09T16:07:36;13.19;70.87
76040;SHT30;64736;50.462;4.850;2022-11-09T16:10:03;13.21;70.73
76040;SHT30;64736;50.462;4.850;2022-11-09T16:12:29;13.19;70.69
76040;SHT30;64736;50.462;4.850;2022-11-09T16:14:54;13.27;71.23
76040;SHT30;64736;50.462;4.850;2022-11-09T16:17:20;13.04;77.53
76040;SHT30;64736;50.462;4.850;2022-11-09T16:19:46;12.76;77.60
76040;SHT30;64736;50.462;4.850;2022-11-09T16:22:12;12.68;76.50
76040;SHT30;64736;50.462;4.850;2022-11-09T16:24:37;12.63;76.08
76040;SHT30;64736;50.462;4.850;2022-11-09T16:27:04;12.58;76.38
76040;SHT30;64736;50.462;4.850;2022-11-09T16:29:32;12.52;76.00
76040;SHT30;64736;50.462;4.850;2022-11-09T16:31:58;12.46;75.97
76040;SHT30;64736;50.462;4.850;2022-11-09T16:34:25;12.45;75.97
76040;SHT30;64736;50.462;4.850;2022-11-09T16:36:51;12.41;75.66
76040;SHT30;64736;50.462;4.850;2022-11-09T16:39:16;12.37;76.33
76040;SHT30;64736;50.462;4.850;2022-11-09T16:41:44;12.33;75.31
76040;SHT30;64736;50.462;4.850;2022-11-09T16:44:12;12.27;75.12
76040;SHT30;64736;50.462;4.850;2022-11-09T16:46:41;12.24;75.51
76040;SHT30;64736;50.462;4.850;2022-11-09T16:49:08;12.23;75.85
76040;SHT30;64736;50.462;4.850;2022-11-09T16:51:33;12.18;75.98
76040;SHT30;64736;50.462;4.850;2022-11-09T16:53:59;12.18;76.02
76040;SHT30;64736;50.462;4.850;2022-11-09T16:56:24;12.13;76.35
76040;SHT30;64736;50.462;4.850;2022-11-09T16:58:50;12.08;76.79
76040;SHT30;64736;50.462;4.850;2022-11-09T17:01:16;12.04;77.17
76040;SHT30;64736;50.462;4.850;2022-11-09T17:03:42;12.00;77.60
76040;SHT30;64736;50.462;4.850;2022-11-09T17:06:07;11.96;77.91
76040;SHT30;64736;50.462;4.850;2022-11-09T17:08:39;12.03;78.00
76040;SHT30;64736;50.462;4.850;2022-11-09T17:11:12;12.01;78.38
76040;SHT30;64736;50.462;4.850;2022-11-09T17:13:39;12.13;77.85
76040;SHT30;64736;50.462;4.850;2022-11-09T17:16:10;12.14;77.77
76040;SHT30;64736;50.462;4.850;2022-11-09T17:18:36;12.18;77.68
76040;SHT30;64736;50.462;4.850;2022-11-09T17:21:03;12.21;77.55
76040;SHT30;64736;50.462;4.850;2022-11-09T17:23:32;12.20;77.31
76040;SHT30;64736;50.462;4.850;2022-11-09T17:26:03;12.16;77.26
76040;SHT30;64736;50.462;4.850;2022-11-09T17:28:30;12.13;77.52
76040;SHT30;64736;50.462;4.850;2022-11-09T17:30:56;12.10;77.21
76040;SHT30;64736;50.462;4.850;2022-11-09T17:33:22;12.21;76.93
76040;SHT30;64736;50.462;4.850;2022-11-09T17:35:58;12.25;76.81
76040;SHT30;64736;50.462;4.850;2022-11-09T17:38:24;12.20;77.01
76040;SHT30;64736;50.462;4.850;2022-11-09T17:40:50;12.17;77.04
76040;SHT30;64736;50.462;4.850;2022-11-09T17:43:15;12.10;77.22